createdAt,value
2022-11-15T00:02:16.385Z,16.90
2022-11-15T00:05:03.240Z,15.60
2022-11-15T00:07:55.674Z,15.40
2022-11-15T00:10:42.757Z,15.20
2022-11-15T00:13:31.155Z,16.20
2022-11-15T00:16:18.658Z,15.40
2022-11-15T00:19:05.271Z,13.70
2022-11-15T00:21:52.972Z,14.20
2022-11-15T00:24:39.412Z,14.90
2022-11-15T00:27:26.115Z,12.70
2022-11-15T00:30:13.744Z,14.10
2022-11-15T00:33:07.282Z,14.50
2022-11-15T00:35:53.885Z,14.60
2022-11-15T00:38:41.700Z,14.40
2022-11-15T00:41:28.196Z,14.90
2022-11-15T00:44:15.134Z,16.20
2022-11-15T00:47:01.654Z,17.60
2022-11-15T00:49:48.248Z,17.30
2022-11-15T00:52:34.740Z,16.50
2022-11-15T00:55:21.143Z,17.70
2022-11-15T00:58:07.524Z,17.40
2022-11-15T01:00:54.086Z,17.70
2022-11-15T01:03:44.508Z,16.80
2022-11-15T01:06:30.982Z,18.00
2022-11-15T01:09:17.720Z,18.20
2022-11-15T01:12:04.603Z,18.80
2022-11-15T01:14:51.316Z,18.10
2022-11-15T01:17:38.071Z,17.60
2022-11-15T01:20:24.593Z,17.40
2022-11-15T01:23:11.608Z,17.90
2022-11-15T01:26:02.551Z,20.30
2022-11-15T01:28:49.086Z,17.70
2022-11-15T01:31:36.557Z,16.90
2022-11-15T01:34:23.280Z,17.00
2022-11-15T01:37:11.173Z,16.70
2022-11-15T01:39:57.814Z,19.30
2022-11-15T01:42:44.437Z,18.40
2022-11-15T01:45:32.529Z,17.20
2022-11-15T01:48:18.936Z,15.60
2022-11-15T01:51:10.428Z,16.40
2022-11-15T01:54:03.325Z,16.70
2022-11-15T01:57:07.801Z,16.60
2022-11-15T01:59:55.365Z,15.90
2022-11-15T02:02:42.324Z,13.60
2022-11-15T02:05:31.312Z,12.10
2022-11-15T02:08:21.078Z,13.20
2022-11-15T02:11:10.769Z,10.90
2022-11-15T02:13:59.911Z,11.10
2022-11-15T02:17:10.887Z,10.80
2022-11-15T02:20:35.814Z,11.50
2022-11-15T02:23:27.920Z,12.70
2022-11-15T02:26:35.622Z,16.40
2022-11-15T02:29:34.093Z,19.50
2022-11-15T02:32:32.714Z,19.50
2022-11-15T02:36:02.575Z,21.30
2022-11-15T02:39:13.881Z,18.70
2022-11-15T02:42:29.969Z,19.80
2022-11-15T02:45:25.560Z,19.20
2022-11-15T02:48:13.237Z,20.50
2022-11-15T02:51:01.972Z,17.90
2022-11-15T02:53:49.278Z,17.20
2022-11-15T02:56:36.048Z,17.10
2022-11-15T02:59:45.195Z,14.70
2022-11-15T03:02:43.706Z,14.40
2022-11-15T03:05:46.507Z,15.60
2022-11-15T03:08:41.239Z,14.60
2022-11-15T03:11:30.948Z,16.60
2022-11-15T03:14:24.770Z,14.80
2022-11-15T03:17:24.911Z,17.80
2022-11-15T03:20:15.616Z,14.50
2022-11-15T03:23:10.874Z,16.90
2022-11-15T03:25:59.196Z,14.50
2022-11-15T03:28:58.654Z,14.30
2022-11-15T03:31:51.197Z,15.00
2022-11-15T03:35:18.170Z,13.80
2022-11-15T03:38:27.515Z,17.70
2022-11-15T03:41:24.708Z,19.20
2022-11-15T03:44:36.764Z,16.30
2022-11-15T03:47:29.004Z,14.90
2022-11-15T03:50:19.900Z,11.60
2022-11-15T03:53:06.788Z,11.50
2022-11-15T03:55:53.715Z,12.50
2022-11-15T03:58:40.338Z,12.30
2022-11-15T04:01:26.927Z,12.60
2022-11-15T04:04:13.696Z,12.80
2022-11-15T04:07:00.450Z,15.30
2022-11-15T04:10:06.563Z,17.60
2022-11-15T04:12:53.195Z,19.30
2022-11-15T04:15:39.946Z,21.00
2022-11-15T04:18:26.648Z,19.10
2022-11-15T04:21:31.744Z,15.60
2022-11-15T04:24:18.335Z,14.30
2022-11-15T04:27:05.198Z,14.00
2022-11-15T04:29:53.891Z,15.60
2022-11-15T04:32:40.368Z,16.00
2022-11-15T04:35:27.635Z,14.40
2022-11-15T04:38:14.784Z,14.30
2022-11-15T04:41:01.470Z,13.10
2022-11-15T04:43:48.092Z,13.90
2022-11-15T04:46:34.621Z,13.60
2022-11-15T04:49:23.327Z,14.10
2022-11-15T04:52:10.012Z,13.00
2022-11-15T04:54:57.165Z,13.90
2022-11-15T04:57:43.831Z,13.30
2022-11-15T05:00:30.872Z,11.40
2022-11-15T05:03:36.646Z,13.50
2022-11-15T05:06:23.666Z,13.10
2022-11-15T05:09:10.126Z,14.00
2022-11-15T05:11:56.740Z,13.90
2022-11-15T05:14:43.311Z,14.20
2022-11-15T05:17:29.982Z,15.00
2022-11-15T05:20:16.867Z,15.80
2022-11-15T05:23:03.899Z,17.10
2022-11-15T05:25:51.225Z,14.00
2022-11-15T05:28:39.427Z,15.10
2022-11-15T05:31:27.362Z,13.10
2022-11-15T05:34:13.514Z,14.60
2022-11-15T05:37:01.586Z,13.90
2022-11-15T05:39:48.059Z,14.80
2022-11-15T05:42:36.412Z,16.50
2022-11-15T05:45:26.965Z,14.20
2022-11-15T05:48:14.711Z,14.60
2022-11-15T05:51:03.250Z,19.20
2022-11-15T05:53:53.245Z,15.60
2022-11-15T05:56:40.513Z,15.50
2022-11-15T05:59:29.540Z,15.90
2022-11-15T06:02:16.860Z,19.60
2022-11-15T06:05:03.877Z,18.60
2022-11-15T06:07:50.374Z,19.30
2022-11-15T06:10:36.909Z,20.20
2022-11-15T06:13:23.563Z,20.90
2022-11-15T06:16:11.843Z,20.80
2022-11-15T06:19:00.795Z,18.80
2022-11-15T06:21:47.713Z,19.30
2022-11-15T06:24:35.256Z,19.70
2022-11-15T06:27:23.461Z,20.70
2022-11-15T06:30:12.146Z,23.20
2022-11-15T06:33:05.591Z,23.50
2022-11-15T06:35:52.320Z,21.00
2022-11-15T06:38:38.951Z,20.10
2022-11-15T06:41:26.028Z,18.20
2022-11-15T06:44:13.837Z,18.30
2022-11-15T06:47:00.412Z,20.80
2022-11-15T06:49:47.374Z,24.80
2022-11-15T06:52:34.053Z,23.40
2022-11-15T06:55:20.837Z,21.80
2022-11-15T06:58:08.130Z,25.40
2022-11-15T07:00:55.567Z,20.70
2022-11-15T07:03:43.236Z,20.70
2022-11-15T07:06:29.611Z,19.20
2022-11-15T07:09:16.119Z,21.00
2022-11-15T07:12:07.556Z,22.80
2022-11-15T07:14:54.612Z,25.20
2022-11-15T07:17:40.950Z,20.10
2022-11-15T07:20:27.759Z,19.10
2022-11-15T07:23:15.423Z,18.60
2022-11-15T07:26:01.966Z,18.10
2022-11-15T07:28:48.762Z,19.50
2022-11-15T07:31:35.100Z,19.90
2022-11-15T07:34:22.602Z,21.60
2022-11-15T07:37:09.603Z,24.90
2022-11-15T07:39:56.253Z,22.80
2022-11-15T07:42:57.236Z,27.10
2022-11-15T07:45:45.159Z,25.10
2022-11-15T07:48:43.472Z,23.00
2022-11-15T07:51:30.585Z,21.40
2022-11-15T07:54:18.474Z,24.70
2022-11-15T07:57:07.721Z,25.10
2022-11-15T07:59:55.000Z,43.90
2022-11-15T08:02:42.617Z,23.00
2022-11-15T08:05:29.468Z,25.60
2022-11-15T08:08:16.964Z,27.20
2022-11-15T08:11:04.349Z,26.10
2022-11-15T08:13:51.677Z,25.40
2022-11-15T08:16:38.275Z,26.70
2022-11-15T08:19:24.865Z,26.20
2022-11-15T08:22:11.242Z,28.00
2022-11-15T08:24:57.844Z,27.70
2022-11-15T08:27:44.823Z,27.10
2022-11-15T08:30:35.712Z,27.20
2022-11-15T08:33:22.003Z,28.60
2022-11-15T08:36:14.763Z,25.50
2022-11-15T08:39:01.740Z,27.90
2022-11-15T08:41:49.051Z,30.30
2022-11-15T08:44:35.942Z,27.40
2022-11-15T08:47:25.057Z,30.80
2022-11-15T08:50:11.901Z,23.20
2022-11-15T08:53:06.146Z,23.80
2022-11-15T08:58:30.501Z,22.60
2022-11-15T09:01:21.098Z,15.10
2022-11-15T09:04:07.769Z,19.10
2022-11-15T09:06:54.948Z,23.00
2022-11-15T09:09:42.295Z,23.20
2022-11-15T09:12:29.689Z,27.20
2022-11-15T09:15:18.067Z,22.30
2022-11-15T09:18:05.057Z,27.70
2022-11-15T09:20:51.619Z,22.50
2022-11-15T09:23:38.432Z,27.30
2022-11-15T09:26:26.265Z,22.40
2022-11-15T09:29:13.300Z,21.00
2022-11-15T09:32:03.173Z,16.40
2022-11-15T09:34:50.593Z,20.50
2022-11-15T09:37:37.477Z,16.80
2022-11-15T09:40:27.381Z,17.40
2022-11-15T09:43:35.954Z,17.10
2022-11-15T09:46:53.902Z,18.40
2022-11-15T09:49:39.164Z,18.30
2022-11-15T09:52:14.712Z,16.50
2022-11-15T09:54:54.703Z,14.90
2022-11-15T09:57:36.825Z,18.50
2022-11-15T10:03:22.472Z,16.20
2022-11-15T10:05:53.110Z,16.30
2022-11-15T10:09:07.600Z,15.50
2022-11-15T10:11:39.392Z,17.50
2022-11-15T10:14:20.042Z,17.90
2022-11-15T10:16:59.041Z,19.40
2022-11-15T10:19:55.047Z,26.20
2022-11-15T10:24:16.197Z,15.20
2022-11-15T10:25:35.763Z,15.70
2022-11-15T10:28:23.259Z,39.80
2022-11-15T10:30:55.069Z,17.60
2022-11-15T10:33:40.487Z,14.00
2022-11-15T10:36:09.452Z,15.20
2022-11-15T10:39:00.154Z,20.70
2022-11-15T10:41:32.962Z,23.50
2022-11-15T10:44:13.502Z,33.00
2022-11-15T10:46:47.847Z,16.20
2022-11-15T10:49:18.489Z,18.70
2022-11-15T10:51:56.707Z,19.60
2022-11-15T10:54:45.093Z,18.90
2022-11-15T10:57:20.446Z,16.50
2022-11-15T11:00:01.744Z,26.30
2022-11-15T11:02:37.674Z,26.10
2022-11-15T11:05:26.628Z,17.30
2022-11-15T11:08:20.306Z,15.80
2022-11-15T11:11:02.221Z,26.40
2022-11-15T11:13:40.350Z,15.90
2022-11-15T11:16:14.670Z,15.10
2022-11-15T11:19:12.418Z,30.00
2022-11-15T11:22:00.896Z,15.50
2022-11-15T11:24:31.692Z,14.60
2022-11-15T11:27:20.328Z,18.70
2022-11-15T11:30:05.140Z,19.70
2022-11-15T11:32:46.300Z,17.20
2022-11-15T11:35:18.674Z,17.60
2022-11-15T11:37:59.012Z,13.50
2022-11-15T11:40:37.103Z,24.10
2022-11-15T11:43:34.558Z,16.20
2022-11-15T11:46:30.132Z,14.00
2022-11-15T11:49:28.162Z,15.70
2022-11-15T11:52:21.069Z,15.60
2022-11-15T11:55:15.104Z,14.50
2022-11-15T11:58:15.803Z,27.50
2022-11-15T12:01:17.750Z,16.70
2022-11-15T12:04:04.865Z,36.20
2022-11-15T12:06:58.092Z,22.60
2022-11-15T12:09:54.854Z,22.40
2022-11-15T12:12:51.771Z,19.10
2022-11-15T12:15:27.757Z,16.30
2022-11-15T12:17:57.924Z,17.00
2022-11-15T12:20:36.027Z,17.10
2022-11-15T12:23:14.503Z,18.80
2022-11-15T12:26:11.204Z,18.10
2022-11-15T12:29:07.558Z,16.90
2022-11-15T12:31:44.889Z,17.70
2022-11-15T12:34:22.186Z,18.00
2022-11-15T12:36:52.655Z,20.40
2022-11-15T12:39:22.506Z,25.90
2022-11-15T12:41:57.379Z,23.60
2022-11-15T12:44:48.418Z,25.80
2022-11-15T12:47:25.798Z,19.80
2022-11-15T12:49:55.279Z,19.60
2022-11-15T12:52:23.382Z,20.20
2022-11-15T12:54:54.621Z,19.80
2022-11-15T12:57:40.605Z,23.70
2022-11-15T13:00:15.315Z,19.80
2022-11-15T13:02:47.140Z,20.30
2022-11-15T13:05:17.172Z,27.20
2022-11-15T13:07:48.086Z,18.90
2022-11-15T13:10:31.190Z,23.20
2022-11-15T13:13:03.757Z,21.20
2022-11-15T13:15:41.343Z,19.90
2022-11-15T13:18:45.186Z,26.00
2022-11-15T13:21:43.199Z,26.80
2022-11-15T13:24:14.750Z,29.90
2022-11-15T13:26:45.260Z,31.30
2022-11-15T13:29:21.150Z,32.20
2022-11-15T13:31:50.181Z,32.60
2022-11-15T13:37:21.712Z,28.70
2022-11-15T13:39:51.401Z,27.40
2022-11-15T13:42:21.698Z,27.30
2022-11-15T13:44:59.708Z,24.90
2022-11-15T13:47:30.007Z,24.10
2022-11-15T13:49:59.389Z,25.20
2022-11-15T13:52:36.495Z,27.40
2022-11-15T13:55:12.197Z,22.50
2022-11-15T13:57:46.470Z,27.20
2022-11-15T14:00:27.465Z,27.50
2022-11-15T14:02:56.508Z,28.90
2022-11-15T14:05:28.036Z,32.50
2022-11-15T14:07:58.613Z,37.00
2022-11-15T14:10:37.784Z,31.70
2022-11-15T14:13:27.317Z,28.40
2022-11-15T14:15:55.342Z,24.00
2022-11-15T14:18:42.580Z,25.10
2022-11-15T14:21:10.846Z,23.60
2022-11-15T14:23:41.343Z,23.10
2022-11-15T14:26:31.042Z,23.90
2022-11-15T14:29:31.702Z,24.90
2022-11-15T14:32:44.040Z,25.60
2022-11-15T14:35:19.355Z,24.40
2022-11-15T14:37:48.629Z,29.80
2022-11-15T14:40:23.185Z,25.80
2022-11-15T14:42:51.445Z,31.20
2022-11-15T14:45:21.752Z,28.70
2022-11-15T14:47:50.944Z,29.00
2022-11-15T14:50:21.496Z,33.50
2022-11-15T14:52:50.744Z,22.40
2022-11-15T14:55:25.814Z,24.90
2022-11-15T15:00:23.098Z,22.90
2022-11-15T15:02:54.443Z,24.40
2022-11-15T15:05:27.201Z,23.50
2022-11-15T15:07:55.411Z,23.90
2022-11-15T15:10:39.379Z,22.90
2022-11-15T15:13:20.482Z,23.70
2022-11-15T15:15:50.032Z,22.50
2022-11-15T15:18:20.893Z,23.00
2022-11-15T15:20:57.538Z,24.50
2022-11-15T15:23:31.502Z,24.90
2022-11-15T15:26:00.987Z,25.70
2022-11-15T15:28:34.231Z,26.10
2022-11-15T15:31:03.604Z,26.90
2022-11-15T15:33:32.609Z,27.60
2022-11-15T15:36:00.773Z,27.20
2022-11-15T15:38:29.159Z,30.40
2022-11-15T15:40:59.470Z,32.50
2022-11-15T15:43:27.690Z,32.80
2022-11-15T15:45:56.052Z,34.80
2022-11-15T15:48:24.608Z,35.90
2022-11-15T15:50:53.323Z,37.10
2022-11-15T15:53:23.123Z,36.30
2022-11-15T15:55:51.173Z,37.80
2022-11-15T15:58:19.332Z,29.40
2022-11-15T16:00:47.730Z,31.50
2022-11-15T16:03:16.031Z,43.40
2022-11-15T16:05:44.832Z,35.40
2022-11-15T16:08:27.689Z,43.00
2022-11-15T16:10:56.486Z,42.00
2022-11-15T16:13:24.783Z,41.40
2022-11-15T16:15:55.504Z,37.00
2022-11-15T16:18:23.536Z,35.60
2022-11-15T16:20:53.324Z,34.30
2022-11-15T16:23:23.719Z,35.90
2022-11-15T16:25:56.782Z,33.50
2022-11-15T16:28:30.800Z,33.30
2022-11-15T16:31:13.336Z,33.40
2022-11-15T16:33:42.764Z,32.00
2022-11-15T16:36:30.835Z,32.60
2022-11-15T16:39:00.833Z,30.60
2022-11-15T16:41:28.832Z,32.00
2022-11-15T16:43:57.823Z,31.30
2022-11-15T16:46:27.766Z,36.00
2022-11-15T16:48:56.175Z,32.20
2022-11-15T16:51:24.257Z,32.50
2022-11-15T16:53:52.486Z,31.80
2022-11-15T16:56:20.418Z,31.60
2022-11-15T16:58:48.669Z,32.50
2022-11-15T17:01:24.341Z,33.70
2022-11-15T17:03:52.999Z,36.60
2022-11-15T17:06:26.711Z,33.20
2022-11-15T17:08:54.710Z,33.90
2022-11-15T17:11:22.992Z,30.80
2022-11-15T17:13:51.019Z,32.10
2022-11-15T17:16:19.383Z,29.70
2022-11-15T17:18:53.695Z,32.20
2022-11-15T17:21:22.959Z,31.70
2022-11-15T17:23:50.972Z,32.80
2022-11-15T17:26:40.272Z,32.70
2022-11-15T17:29:12.127Z,33.90
2022-11-15T17:31:42.791Z,35.90
2022-11-15T17:34:10.902Z,36.00
2022-11-15T17:36:38.922Z,38.50
2022-11-15T17:39:07.563Z,37.10
2022-11-15T17:41:35.692Z,33.80
2022-11-15T17:44:04.200Z,35.80
2022-11-15T17:46:36.469Z,33.30
2022-11-15T17:49:05.165Z,32.90
2022-11-15T17:51:34.439Z,32.30
2022-11-15T17:54:03.801Z,35.10
2022-11-15T17:56:32.567Z,35.80
2022-11-15T17:59:01.057Z,37.10
2022-11-15T18:01:31.423Z,36.10
2022-11-15T18:04:02.238Z,37.00
2022-11-15T18:06:32.840Z,42.70
2022-11-15T18:09:01.862Z,38.20
2022-11-15T18:11:35.442Z,39.20
2022-11-15T18:14:06.098Z,39.60
2022-11-15T18:16:36.686Z,40.30
2022-11-15T18:19:22.984Z,41.50
2022-11-15T18:21:57.737Z,41.90
2022-11-15T18:24:35.784Z,37.70
2022-11-15T18:27:08.459Z,37.10
2022-11-15T18:29:38.344Z,36.40
2022-11-15T18:32:26.933Z,36.10
2022-11-15T18:34:55.668Z,39.10
2022-11-15T18:37:24.225Z,51.90
2022-11-15T18:39:53.988Z,48.10
2022-11-15T18:42:22.336Z,38.30
2022-11-15T18:44:50.395Z,37.80
2022-11-15T18:47:18.380Z,40.00
2022-11-15T18:49:46.947Z,37.90
2022-11-15T18:52:14.891Z,38.90
2022-11-15T18:54:44.351Z,39.80
2022-11-15T18:57:12.365Z,40.90
2022-11-15T18:59:41.002Z,40.40
2022-11-15T19:02:13.310Z,40.40
2022-11-15T19:04:42.808Z,39.70
2022-11-15T19:07:12.652Z,40.60
2022-11-15T19:09:40.619Z,39.40
2022-11-15T19:12:08.921Z,41.40
2022-11-15T19:14:37.023Z,41.20
2022-11-15T19:17:05.068Z,40.20
2022-11-15T19:19:34.215Z,40.50
2022-11-15T19:22:02.559Z,41.60
2022-11-15T19:24:30.779Z,40.80
2022-11-15T19:26:59.250Z,38.60
2022-11-15T19:29:28.407Z,33.50
2022-11-15T19:31:57.814Z,32.10
2022-11-15T19:34:25.800Z,34.00
2022-11-15T19:36:54.155Z,30.90
2022-11-15T19:39:22.839Z,29.70
2022-11-15T19:41:52.808Z,27.80
2022-11-15T19:44:23.467Z,28.30
2022-11-15T19:46:53.918Z,29.40
2022-11-15T19:49:23.219Z,28.00
2022-11-15T19:51:51.285Z,28.30
2022-11-15T19:54:19.504Z,28.80
2022-11-15T19:56:47.716Z,33.20
2022-11-15T19:59:17.759Z,29.90
2022-11-15T20:01:48.959Z,29.30
2022-11-15T20:04:17.698Z,28.90
2022-11-15T20:06:45.761Z,30.10
2022-11-15T20:09:17.325Z,29.90
2022-11-15T20:11:47.353Z,33.30
2022-11-15T20:14:15.642Z,35.80
2022-11-15T20:16:44.259Z,33.40
2022-11-15T20:19:16.035Z,33.40
2022-11-15T20:21:44.391Z,33.20
2022-11-15T20:24:12.425Z,31.10
2022-11-15T20:26:40.627Z,29.90
2022-11-15T20:29:10.102Z,30.00
2022-11-15T20:31:39.785Z,29.00
2022-11-15T20:34:07.937Z,28.30
2022-11-15T20:36:36.127Z,29.50
2022-11-15T20:39:04.246Z,30.00
2022-11-15T20:41:33.138Z,29.20
2022-11-15T20:44:03.245Z,31.50
2022-11-15T20:46:31.312Z,29.80
2022-11-15T20:48:59.523Z,30.70
2022-11-15T20:51:27.392Z,31.30
2022-11-15T20:53:56.026Z,29.90
2022-11-15T20:56:24.235Z,27.00
2022-11-15T20:58:57.127Z,26.90
2022-11-15T21:01:27.652Z,27.00
2022-11-15T21:03:56.838Z,27.80
2022-11-15T21:06:27.006Z,28.00
2022-11-15T21:09:14.595Z,29.30
2022-11-15T21:12:01.312Z,26.90
2022-11-15T21:14:31.367Z,27.90
2022-11-15T21:17:00.272Z,28.20
2022-11-15T21:19:34.033Z,30.40
2022-11-15T21:22:07.840Z,29.20
2022-11-15T21:24:36.137Z,30.30
2022-11-15T21:27:04.278Z,30.40
2022-11-15T21:29:38.912Z,28.20
2022-11-15T21:32:08.919Z,26.80
2022-11-15T21:34:38.716Z,25.50
2022-11-15T21:37:07.131Z,25.60
2022-11-15T21:39:35.218Z,25.60
2022-11-15T21:42:03.905Z,25.10
2022-11-15T21:44:32.188Z,26.10
2022-11-15T21:47:00.630Z,25.80
2022-11-15T21:49:29.823Z,24.80
2022-11-15T21:51:58.036Z,23.90
2022-11-15T21:54:25.944Z,23.60
2022-11-15T21:56:54.135Z,22.20
2022-11-15T21:59:22.073Z,22.20
2022-11-15T22:02:08.992Z,22.40
2022-11-15T22:04:37.047Z,22.80
2022-11-15T22:07:06.469Z,23.40
2022-11-15T22:09:34.420Z,24.20
2022-11-15T22:12:02.391Z,23.90
2022-11-15T22:14:30.400Z,23.10
2022-11-15T22:16:58.433Z,23.90
2022-11-15T22:19:26.609Z,23.00
2022-11-15T22:21:54.684Z,23.10
2022-11-15T22:24:23.501Z,25.10
2022-11-15T22:26:52.404Z,24.20
2022-11-15T22:29:21.178Z,24.90
2022-11-15T22:31:50.258Z,22.70
2022-11-15T22:34:18.305Z,23.10
2022-11-15T22:37:18.389Z,23.60
2022-11-15T22:39:34.427Z,22.70
2022-11-15T22:42:02.442Z,22.70
2022-11-15T22:44:30.469Z,21.80
2022-11-15T22:46:58.468Z,22.40
2022-11-15T22:49:26.450Z,22.10
2022-11-15T22:51:55.924Z,23.30
2022-11-15T22:54:23.901Z,23.00
2022-11-15T22:56:51.897Z,24.60
2022-11-15T22:59:19.891Z,24.30
2022-11-15T23:01:47.935Z,24.90
2022-11-15T23:04:16.078Z,24.60
2022-11-15T23:06:44.049Z,24.10
2022-11-15T23:09:12.053Z,22.00
2022-11-15T23:11:58.588Z,23.00
2022-11-15T23:14:28.967Z,25.60
2022-11-15T23:16:58.025Z,29.00
2022-11-15T23:19:26.235Z,30.20
2022-11-15T23:22:12.930Z,32.50
2022-11-15T23:24:41.146Z,33.20
2022-11-15T23:27:09.235Z,31.20
2022-11-15T23:29:57.467Z,31.60
2022-11-15T23:32:44.044Z,30.10
2022-11-15T23:35:12.676Z,29.70
2022-11-15T23:37:40.718Z,32.10
2022-11-15T23:40:09.702Z,33.40
2022-11-15T23:42:37.730Z,35.20
2022-11-15T23:45:07.045Z,34.90
2022-11-15T23:47:35.152Z,35.00
2022-11-15T23:50:04.069Z,33.40
2022-11-15T23:52:32.540Z,31.00
2022-11-15T23:55:01.157Z,31.00
2022-11-15T23:57:29.155Z,31.10
2022-11-15T23:59:59.330Z,31.40
